Pinhook, Indiana
Current Conditions -  °F | °C
As of 7:53 AM on Friday 28 Nov 2014 (Local Time) from KBMG Reporting Station
Overcast Overcast  
Wind Chill: 13°   Ceiling: 6500
Heat Index: 22°   Visibility: 10mi
Dew Point: 18°   Wind: 7mph
Humidity: 85%   Direction: 210°SSW
Pressure: 30.37"   Gusts: NA
Location:  38.8737°N, 86.4563°W
Report Text: KBMG 281253Z 21006KT 10SM OVC065 M06/M08 A3037 RMK AO2 SLP296 T10561078
Loading
Personal Weather Stations






























Interactive Weather Map New forecast layout! Learn more

10-Day Weather Forecast

Advertisements
Track Severe Weather on mobile